sensor_id;sensor_type;location;lat;lon;timestamp;pressure;altitude;pressure_sealevel;temperature;humidity
82476;BME280;72099;43.176;76.872;2024-03-06T00:02:14;89696.28;;;-5.73;67.54
82476;BME280;72099;43.176;76.872;2024-03-06T00:05:15;89696.38;;;-5.57;66.70
82476;BME280;72099;43.176;76.872;2024-03-06T00:08:16;89703.31;;;-5.48;66.64
82476;BME280;72099;43.176;76.872;2024-03-06T00:11:17;89698.69;;;-5.51;66.48
82476;BME280;72099;43.176;76.872;2024-03-06T00:14:35;89701.50;;;-5.52;66.72
82476;BME280;72099;43.176;76.872;2024-03-06T00:17:36;89689.97;;;-5.55;66.64
82476;BME280;72099;43.176;76.872;2024-03-06T00:20:37;89690.72;;;-5.59;66.62
82476;BME280;72099;43.176;76.872;2024-03-06T00:23:38;89680.72;;;-5.61;66.71
82476;BME280;72099;43.176;76.872;2024-03-06T00:26:43;89694.13;;;-5.44;66.44
82476;BME280;72099;43.176;76.872;2024-03-06T00:29:45;89691.59;;;-5.44;66.50
82476;BME280;72099;43.176;76.872;2024-03-06T00:32:45;89685.38;;;-5.53;66.51
82476;BME280;72099;43.176;76.872;2024-03-06T00:35:46;89678.41;;;-5.63;66.45
82476;BME280;72099;43.176;76.872;2024-03-06T00:38:47;89687.34;;;-5.65;66.69
82476;BME280;72099;43.176;76.872;2024-03-06T00:41:48;89694.25;;;-5.66;66.31
82476;BME280;72099;43.176;76.872;2024-03-06T00:44:49;89690.16;;;-5.72;67.30
82476;BME280;72099;43.176;76.872;2024-03-06T00:47:50;89709.88;;;-5.67;66.87
82476;BME280;72099;43.176;76.872;2024-03-06T00:50:51;89712.94;;;-5.70;66.47
82476;BME280;72099;43.176;76.872;2024-03-06T00:53:52;89689.84;;;-5.75;66.41
82476;BME280;72099;43.176;76.872;2024-03-06T00:56:52;89705.56;;;-5.61;67.17
82476;BME280;72099;43.176;76.872;2024-03-06T00:59:53;89702.28;;;-5.52;66.68
82476;BME280;72099;43.176;76.872;2024-03-06T01:02:54;89694.09;;;-5.54;66.94
82476;BME280;72099;43.176;76.872;2024-03-06T01:05:55;89694.00;;;-5.64;66.83
82476;BME280;72099;43.176;76.872;2024-03-06T01:08:56;89699.91;;;-5.64;67.13
82476;BME280;72099;43.176;76.872;2024-03-06T01:11:58;89705.50;;;-5.72;66.88
82476;BME280;72099;43.176;76.872;2024-03-06T01:14:59;89703.41;;;-5.80;67.20
82476;BME280;72099;43.176;76.872;2024-03-06T01:18:00;89697.47;;;-5.85;67.35
82476;BME280;72099;43.176;76.872;2024-03-06T01:21:01;89702.59;;;-5.85;67.66
82476;BME280;72099;43.176;76.872;2024-03-06T01:24:03;89705.91;;;-5.90;67.04
82476;BME280;72099;43.176;76.872;2024-03-06T01:27:04;89706.91;;;-5.96;67.76
82476;BME280;72099;43.176;76.872;2024-03-06T01:30:05;89707.63;;;-6.01;67.24
82476;BME280;72099;43.176;76.872;2024-03-06T01:33:06;89688.09;;;-6.12;67.36
82476;BME280;72099;43.176;76.872;2024-03-06T01:36:07;89709.94;;;-5.99;67.97
82476;BME280;72099;43.176;76.872;2024-03-06T01:39:07;89723.53;;;-5.99;67.31
82476;BME280;72099;43.176;76.872;2024-03-06T01:42:10;89726.13;;;-5.93;67.15
82476;BME280;72099;43.176;76.872;2024-03-06T01:45:10;89721.78;;;-5.88;66.92
82476;BME280;72099;43.176;76.872;2024-03-06T01:48:11;89725.66;;;-5.85;66.58
82476;BME280;72099;43.176;76.872;2024-03-06T01:51:12;89736.97;;;-5.76;66.51
82476;BME280;72099;43.176;76.872;2024-03-06T01:54:14;89721.56;;;-5.81;66.59
82476;BME280;72099;43.176;76.872;2024-03-06T01:57:17;89740.66;;;-5.62;66.51
82476;BME280;72099;43.176;76.872;2024-03-06T02:00:18;89739.94;;;-5.57;66.49
82476;BME280;72099;43.176;76.872;2024-03-06T02:03:19;89735.41;;;-5.45;66.43
82476;BME280;72099;43.176;76.872;2024-03-06T02:06:21;89734.38;;;-5.44;66.45
82476;BME280;72099;43.176;76.872;2024-03-06T02:09:23;89739.25;;;-5.43;66.45
82476;BME280;72099;43.176;76.872;2024-03-06T02:12:24;89702.72;;;-5.65;66.58
82476;BME280;72099;43.176;76.872;2024-03-06T02:15:25;89732.06;;;-5.41;66.37
82476;BME280;72099;43.176;76.872;2024-03-06T02:18:26;89744.72;;;-5.29;66.14
82476;BME280;72099;43.176;76.872;2024-03-06T02:21:27;89732.22;;;-5.15;66.09
82476;BME280;72099;43.176;76.872;2024-03-06T02:24:28;89731.81;;;-4.92;65.67
82476;BME280;72099;43.176;76.872;2024-03-06T02:27:29;89731.91;;;-4.66;65.49
82476;BME280;72099;43.176;76.872;2024-03-06T02:30:29;89729.09;;;-4.60;65.89
82476;BME280;72099;43.176;76.872;2024-03-06T02:33:36;89733.53;;;-4.40;65.59
82476;BME280;72099;43.176;76.872;2024-03-06T02:36:37;89724.28;;;-4.31;65.45
82476;BME280;72099;43.176;76.872;2024-03-06T02:39:38;89737.16;;;-4.10;64.73
82476;BME280;72099;43.176;76.872;2024-03-06T02:42:39;89735.38;;;-3.95;64.47
82476;BME280;72099;43.176;76.872;2024-03-06T02:46:04;89738.22;;;-3.76;64.19
82476;BME280;72099;43.176;76.872;2024-03-06T02:49:05;89741.53;;;-3.65;64.81
82476;BME280;72099;43.176;76.872;2024-03-06T02:52:08;89740.78;;;-3.50;64.85
82476;BME280;72099;43.176;76.872;2024-03-06T02:55:09;89739.47;;;-3.33;64.83
82476;BME280;72099;43.176;76.872;2024-03-06T02:58:10;89739.56;;;-2.68;64.15
82476;BME280;72099;43.176;76.872;2024-03-06T03:01:11;89731.44;;;-1.24;63.33
82476;BME280;72099;43.176;76.872;2024-03-06T03:04:13;89711.63;;;-0.14;61.56
82476;BME280;72099;43.176;76.872;2024-03-06T03:07:14;89734.28;;;1.43;58.88
82476;BME280;72099;43.176;76.872;2024-03-06T03:10:15;89736.03;;;2.25;56.56
82476;BME280;72099;43.176;76.872;2024-03-06T03:13:16;89735.31;;;2.33;55.94
82476;BME280;72099;43.176;76.872;2024-03-06T03:16:18;89735.25;;;2.25;55.41
82476;BME280;72099;43.176;76.872;2024-03-06T03:19:19;89742.06;;;2.21;54.98
82476;BME280;72099;43.176;76.872;2024-03-06T03:22:20;89739.53;;;2.43;54.05
82476;BME280;72099;43.176;76.872;2024-03-06T03:25:21;89730.06;;;2.61;53.63
82476;BME280;72099;43.176;76.872;2024-03-06T03:28:22;89738.13;;;2.82;52.87
82476;BME280;72099;43.176;76.872;2024-03-06T03:31:23;89737.44;;;2.90;52.15
82476;BME280;72099;43.176;76.872;2024-03-06T03:34:24;89739.44;;;2.93;52.10
82476;BME280;72099;43.176;76.872;2024-03-06T03:37:25;89735.72;;;2.85;51.76
82476;BME280;72099;43.176;76.872;2024-03-06T03:40:25;89728.41;;;2.87;50.61
82476;BME280;72099;43.176;76.872;2024-03-06T03:43:27;89729.81;;;2.71;50.23
82476;BME280;72099;43.176;76.872;2024-03-06T03:46:28;89730.34;;;2.59;50.44
82476;BME280;72099;43.176;76.872;2024-03-06T03:49:29;89732.69;;;2.47;50.60
82476;BME280;72099;43.176;76.872;2024-03-06T03:52:30;89742.78;;;2.49;50.82
82476;BME280;72099;43.176;76.872;2024-03-06T03:58:59;89744.59;;;2.26;51.15
82476;BME280;72099;43.176;76.872;2024-03-06T04:02:00;89756.59;;;2.35;51.13
82476;BME280;72099;43.176;76.872;2024-03-06T04:05:01;89743.00;;;2.39;51.11
82476;BME280;72099;43.176;76.872;2024-03-06T04:08:03;89757.88;;;2.47;50.81
82476;BME280;72099;43.176;76.872;2024-03-06T04:11:06;89762.50;;;2.50;50.43
82476;BME280;72099;43.176;76.872;2024-03-06T04:14:08;89762.00;;;2.61;50.39
82476;BME280;72099;43.176;76.872;2024-03-06T04:17:09;89757.03;;;2.74;50.07
82476;BME280;72099;43.176;76.872;2024-03-06T04:20:10;89748.34;;;2.78;50.03
82476;BME280;72099;43.176;76.872;2024-03-06T04:23:12;89747.13;;;2.76;50.24
82476;BME280;72099;43.176;76.872;2024-03-06T04:26:13;89744.63;;;2.71;50.13
82476;BME280;72099;43.176;76.872;2024-03-06T04:29:14;89747.13;;;2.76;50.82
82476;BME280;72099;43.176;76.872;2024-03-06T04:32:16;89722.03;;;2.93;50.67
82476;BME280;72099;43.176;76.872;2024-03-06T04:35:35;89734.81;;;3.43;50.14
82476;BME280;72099;43.176;76.872;2024-03-06T04:38:36;89713.69;;;3.76;49.41
82476;BME280;72099;43.176;76.872;2024-03-06T04:41:37;89716.84;;;4.21;48.37
82476;BME280;72099;43.176;76.872;2024-03-06T04:44:54;89718.09;;;4.67;47.94
82476;BME280;72099;43.176;76.872;2024-03-06T04:47:55;89719.31;;;4.78;47.21
82476;BME280;72099;43.176;76.872;2024-03-06T04:50:56;89719.94;;;4.66;47.05
82476;BME280;72099;43.176;76.872;2024-03-06T04:53:57;89720.25;;;4.73;46.89
82476;BME280;72099;43.176;76.872;2024-03-06T04:56:58;89720.06;;;5.13;46.75
82476;BME280;72099;43.176;76.872;2024-03-06T04:59:59;89719.41;;;5.80;45.81
82476;BME280;72099;43.176;76.872;2024-03-06T05:03:03;89727.81;;;6.24;44.85
82476;BME280;72099;43.176;76.872;2024-03-06T05:06:05;89722.66;;;6.36;44.44
82476;BME280;72099;43.176;76.872;2024-03-06T05:09:06;89727.84;;;6.45;44.31
82476;BME280;72099;43.176;76.872;2024-03-06T05:12:07;89723.75;;;6.35;43.12
82476;BME280;72099;43.176;76.872;2024-03-06T05:15:09;89730.06;;;6.05;43.81
82476;BME280;72099;43.176;76.872;2024-03-06T05:18:10;89725.06;;;5.91;43.90
82476;BME280;72099;43.176;76.872;2024-03-06T05:21:11;89727.91;;;6.07;43.91
82476;BME280;72099;43.176;76.872;2024-03-06T05:24:12;89695.78;;;6.15;43.78
82476;BME280;72099;43.176;76.872;2024-03-06T05:27:13;89724.03;;;6.63;43.47
82476;BME280;72099;43.176;76.872;2024-03-06T05:30:17;89688.81;;;6.69;42.20
82476;BME280;72099;43.176;76.872;2024-03-06T05:33:18;89720.44;;;7.09;42.39
82476;BME280;72099;43.176;76.872;2024-03-06T05:36:19;89708.59;;;7.57;41.38
82476;BME280;72099;43.176;76.872;2024-03-06T05:39:20;89705.50;;;8.13;41.23
82476;BME280;72099;43.176;76.872;2024-03-06T05:42:20;89706.25;;;8.62;39.46
82476;BME280;72099;43.176;76.872;2024-03-06T05:45:21;89695.84;;;8.66;38.67
82476;BME280;72099;43.176;76.872;2024-03-06T05:48:22;89710.88;;;8.93;38.92
82476;BME280;72099;43.176;76.872;2024-03-06T05:51:24;89688.56;;;8.99;38.46
82476;BME280;72099;43.176;76.872;2024-03-06T05:54:25;89687.75;;;9.39;37.92
82476;BME280;72099;43.176;76.872;2024-03-06T05:57:28;89710.63;;;10.29;37.60
82476;BME280;72099;43.176;76.872;2024-03-06T06:00:28;89712.78;;;11.33;35.60
82476;BME280;72099;43.176;76.872;2024-03-06T06:03:30;89716.69;;;12.46;34.34
82476;BME280;72099;43.176;76.872;2024-03-06T06:06:30;89713.69;;;13.27;32.13
82476;BME280;72099;43.176;76.872;2024-03-06T06:09:31;89700.41;;;13.53;31.09
82476;BME280;72099;43.176;76.872;2024-03-06T06:12:33;89709.47;;;14.30;30.81
82476;BME280;72099;43.176;76.872;2024-03-06T06:15:34;89711.13;;;14.93;29.25
82476;BME280;72099;43.176;76.872;2024-03-06T06:18:35;89709.13;;;15.45;29.05
82476;BME280;72099;43.176;76.872;2024-03-06T06:21:36;89715.31;;;15.71;28.43
82476;BME280;72099;43.176;76.872;2024-03-06T06:24:37;89700.66;;;16.02;28.32
82476;BME280;72099;43.176;76.872;2024-03-06T06:27:39;89697.28;;;16.40;27.01
82476;BME280;72099;43.176;76.872;2024-03-06T06:30:40;89697.69;;;16.42;26.64
82476;BME280;72099;43.176;76.872;2024-03-06T06:33:41;89702.25;;;16.45;27.24
82476;BME280;72099;43.176;76.872;2024-03-06T06:36:45;89690.88;;;16.59;26.89
82476;BME280;72099;43.176;76.872;2024-03-06T06:39:46;89671.13;;;16.49;26.68
82476;BME280;72099;43.176;76.872;2024-03-06T06:42:49;89692.38;;;16.60;26.25
82476;BME280;72099;43.176;76.872;2024-03-06T06:45:50;89687.44;;;16.59;26.44
82476;BME280;72099;43.176;76.872;2024-03-06T06:48:51;89686.19;;;15.81;25.92
82476;BME280;72099;43.176;76.872;2024-03-06T06:51:52;89697.81;;;15.55;26.43
82476;BME280;72099;43.176;76.872;2024-03-06T06:54:53;89692.09;;;15.43;26.07
82476;BME280;72099;43.176;76.872;2024-03-06T06:57:55;89625.53;;;14.75;26.96
82476;BME280;72099;43.176;76.872;2024-03-06T07:00:56;89684.66;;;14.97;28.32
82476;BME280;72099;43.176;76.872;2024-03-06T07:03:57;89682.34;;;14.40;28.23
82476;BME280;72099;43.176;76.872;2024-03-06T07:06:57;89689.34;;;13.78;28.62
82476;BME280;72099;43.176;76.872;2024-03-06T07:09:58;89687.63;;;13.25;28.94
82476;BME280;72099;43.176;76.872;2024-03-06T07:12:59;89683.22;;;13.37;29.26
82476;BME280;72099;43.176;76.872;2024-03-06T07:16:02;89676.06;;;13.37;29.35
82476;BME280;72099;43.176;76.872;2024-03-06T07:19:04;89668.91;;;13.38;29.90
82476;BME280;72099;43.176;76.872;2024-03-06T07:22:05;89675.66;;;13.35;29.31
82476;BME280;72099;43.176;76.872;2024-03-06T07:25:06;89658.75;;;13.10;29.64
82476;BME280;72099;43.176;76.872;2024-03-06T07:28:07;89669.88;;;12.96;29.28
82476;BME280;72099;43.176;76.872;2024-03-06T07:31:14;89664.75;;;13.07;30.28
82476;BME280;72099;43.176;76.872;2024-03-06T07:34:28;89652.16;;;12.96;29.48
82476;BME280;72099;43.176;76.872;2024-03-06T07:37:29;89649.06;;;12.61;30.41
82476;BME280;72099;43.176;76.872;2024-03-06T07:40:31;89620.75;;;12.31;30.37
82476;BME280;72099;43.176;76.872;2024-03-06T07:43:34;89655.19;;;12.68;30.45
82476;BME280;72099;43.176;76.872;2024-03-06T07:46:35;89650.69;;;12.69;30.68
82476;BME280;72099;43.176;76.872;2024-03-06T07:49:36;89631.22;;;12.24;30.76
82476;BME280;72099;43.176;76.872;2024-03-06T07:52:38;89661.16;;;12.13;31.21
82476;BME280;72099;43.176;76.872;2024-03-06T07:55:40;89653.16;;;12.32;31.39
82476;BME280;72099;43.176;76.872;2024-03-06T07:58:41;89648.75;;;12.13;31.19
82476;BME280;72099;43.176;76.872;2024-03-06T08:01:41;89650.63;;;11.90;31.35
82476;BME280;72099;43.176;76.872;2024-03-06T08:04:42;89649.06;;;11.66;32.41
82476;BME280;72099;43.176;76.872;2024-03-06T08:07:43;89631.78;;;11.68;32.08
82476;BME280;72099;43.176;76.872;2024-03-06T08:10:46;89648.78;;;12.17;32.94
82476;BME280;72099;43.176;76.872;2024-03-06T08:13:49;89642.25;;;12.60;31.84
82476;BME280;72099;43.176;76.872;2024-03-06T08:16:50;89638.69;;;13.05;31.78
82476;BME280;72099;43.176;76.872;2024-03-06T08:19:51;89632.72;;;13.12;31.25
82476;BME280;72099;43.176;76.872;2024-03-06T08:22:52;89635.19;;;13.27;30.91
82476;BME280;72099;43.176;76.872;2024-03-06T08:25:53;89631.88;;;13.31;31.17
82476;BME280;72099;43.176;76.872;2024-03-06T08:28:54;89639.81;;;13.68;31.07
82476;BME280;72099;43.176;76.872;2024-03-06T08:31:55;89579.69;;;13.61;31.15
82476;BME280;72099;43.176;76.872;2024-03-06T08:34:58;89636.78;;;14.10;30.73
82476;BME280;72099;43.176;76.872;2024-03-06T08:38:00;89640.84;;;14.00;30.68
82476;BME280;72099;43.176;76.872;2024-03-06T08:41:01;89594.66;;;13.46;30.68
82476;BME280;72099;43.176;76.872;2024-03-06T08:44:01;89633.06;;;13.40;30.79
82476;BME280;72099;43.176;76.872;2024-03-06T08:47:27;89643.88;;;13.28;30.93
82476;BME280;72099;43.176;76.872;2024-03-06T08:50:28;89634.41;;;13.23;31.16
82476;BME280;72099;43.176;76.872;2024-03-06T08:53:29;89636.28;;;12.93;30.78
82476;BME280;72099;43.176;76.872;2024-03-06T08:56:30;89636.97;;;12.60;31.56
82476;BME280;72099;43.176;76.872;2024-03-06T08:59:31;89637.06;;;12.37;31.05
82476;BME280;72099;43.176;76.872;2024-03-06T09:02:31;89610.22;;;11.82;31.69
82476;BME280;72099;43.176;76.872;2024-03-06T09:05:32;89638.44;;;11.81;33.00
82476;BME280;72099;43.176;76.872;2024-03-06T09:08:34;89628.25;;;11.80;33.66
82476;BME280;72099;43.176;76.872;2024-03-06T09:11:35;89635.00;;;11.35;33.88
82476;BME280;72099;43.176;76.872;2024-03-06T09:14:39;89639.78;;;10.91;34.19
82476;BME280;72099;43.176;76.872;2024-03-06T09:17:41;89630.28;;;10.48;34.50
82476;BME280;72099;43.176;76.872;2024-03-06T09:20:42;89599.22;;;10.02;34.71
82476;BME280;72099;43.176;76.872;2024-03-06T09:23:43;89626.50;;;9.98;35.35
82476;BME280;72099;43.176;76.872;2024-03-06T09:26:44;89634.16;;;9.87;35.85
82476;BME280;72099;43.176;76.872;2024-03-06T09:29:45;89625.69;;;9.78;36.43
82476;BME280;72099;43.176;76.872;2024-03-06T09:32:47;89609.50;;;9.92;36.06
82476;BME280;72099;43.176;76.872;2024-03-06T09:35:47;89635.84;;;9.95;36.47
82476;BME280;72099;43.176;76.872;2024-03-06T09:42:17;89635.00;;;9.91;36.85
82476;BME280;72099;43.176;76.872;2024-03-06T09:45:18;89645.09;;;10.05;36.58
82476;BME280;72099;43.176;76.872;2024-03-06T09:48:21;89640.84;;;10.16;36.18
82476;BME280;72099;43.176;76.872;2024-03-06T09:51:22;89636.94;;;10.10;36.23
82476;BME280;72099;43.176;76.872;2024-03-06T09:54:23;89646.75;;;10.13;36.29
82476;BME280;72099;43.176;76.872;2024-03-06T09:57:26;89611.41;;;10.11;35.96
82476;BME280;72099;43.176;76.872;2024-03-06T10:00:27;89651.59;;;10.27;36.59
82476;BME280;72099;43.176;76.872;2024-03-06T10:03:29;89642.97;;;9.95;36.85
82476;BME280;72099;43.176;76.872;2024-03-06T10:06:30;89633.06;;;9.72;36.75
82476;BME280;72099;43.176;76.872;2024-03-06T10:09:31;89641.28;;;9.71;36.92
82476;BME280;72099;43.176;76.872;2024-03-06T10:12:34;89648.19;;;9.48;37.64
82476;BME280;72099;43.176;76.872;2024-03-06T10:15:36;89641.03;;;9.16;37.74
82476;BME280;72099;43.176;76.872;2024-03-06T10:18:37;89640.38;;;8.92;38.93
82476;BME280;72099;43.176;76.872;2024-03-06T10:21:41;89656.00;;;8.60;39.70
82476;BME280;72099;43.176;76.872;2024-03-06T10:24:42;89671.31;;;8.46;39.97
82476;BME280;72099;43.176;76.872;2024-03-06T10:27:42;89654.81;;;8.45;39.69
82476;BME280;72099;43.176;76.872;2024-03-06T10:30:43;89660.06;;;8.33;40.06
82476;BME280;72099;43.176;76.872;2024-03-06T10:33:46;89658.69;;;8.11;40.61
82476;BME280;72099;43.176;76.872;2024-03-06T10:36:54;89630.63;;;7.99;40.82
82476;BME280;72099;43.176;76.872;2024-03-06T10:39:58;89655.63;;;8.21;40.90
82476;BME280;72099;43.176;76.872;2024-03-06T10:43:00;89655.63;;;7.85;41.47
82476;BME280;72099;43.176;76.872;2024-03-06T10:46:01;89642.06;;;7.46;42.28
82476;BME280;72099;43.176;76.872;2024-03-06T10:49:06;89660.94;;;7.52;42.76
82476;BME280;72099;43.176;76.872;2024-03-06T10:52:09;89675.56;;;7.77;43.50
82476;BME280;72099;43.176;76.872;2024-03-06T10:55:11;89668.50;;;7.90;43.05
82476;BME280;72099;43.176;76.872;2024-03-06T10:58:13;89655.06;;;7.91;43.11
82476;BME280;72099;43.176;76.872;2024-03-06T11:01:13;89659.78;;;7.86;43.19
82476;BME280;72099;43.176;76.872;2024-03-06T11:04:15;89669.38;;;7.69;42.81
82476;BME280;72099;43.176;76.872;2024-03-06T11:07:16;89676.91;;;7.71;43.73
82476;BME280;72099;43.176;76.872;2024-03-06T11:10:31;89674.06;;;7.76;43.16
82476;BME280;72099;43.176;76.872;2024-03-06T11:13:32;89675.38;;;7.70;43.40
82476;BME280;72099;43.176;76.872;2024-03-06T11:17:04;89678.38;;;7.48;43.37
82476;BME280;72099;43.176;76.872;2024-03-06T11:23:09;89685.38;;;6.90;44.81
82476;BME280;72099;43.176;76.872;2024-03-06T11:26:10;89704.09;;;6.79;45.01
82476;BME280;72099;43.176;76.872;2024-03-06T11:29:11;89706.13;;;6.74;45.57
82476;BME280;72099;43.176;76.872;2024-03-06T11:32:12;89707.28;;;6.64;45.69
82476;BME280;72099;43.176;76.872;2024-03-06T11:35:13;89705.38;;;6.53;45.21
82476;BME280;72099;43.176;76.872;2024-03-06T11:38:17;89699.56;;;6.47;45.68
82476;BME280;72099;43.176;76.872;2024-03-06T11:44:26;89715.94;;;6.06;46.95
82476;BME280;72099;43.176;76.872;2024-03-06T11:47:30;89708.91;;;5.98;47.32
82476;BME280;72099;43.176;76.872;2024-03-06T11:50:30;89708.00;;;5.85;47.70
82476;BME280;72099;43.176;76.872;2024-03-06T11:53:34;89708.72;;;5.65;47.80
82476;BME280;72099;43.176;76.872;2024-03-06T11:56:45;89602.63;;;4.46;48.40
82476;BME280;72099;43.176;76.872;2024-03-06T11:59:47;89715.63;;;5.14;49.32
82476;BME280;72099;43.176;76.872;2024-03-06T12:02:49;89696.78;;;5.08;49.74
82476;BME280;72099;43.176;76.872;2024-03-06T12:05:51;89717.41;;;5.30;50.40
82476;BME280;72099;43.176;76.872;2024-03-06T12:09:19;89717.09;;;5.32;50.98
82476;BME280;72099;43.176;76.872;2024-03-06T12:12:20;89718.34;;;5.26;51.02
82476;BME280;72099;43.176;76.872;2024-03-06T12:15:23;89687.91;;;4.92;51.65
82476;BME280;72099;43.176;76.872;2024-03-06T12:18:24;89689.91;;;4.86;52.48
82476;BME280;72099;43.176;76.872;2024-03-06T12:21:31;89718.72;;;4.64;52.29
82476;BME280;72099;43.176;76.872;2024-03-06T12:24:32;89724.69;;;4.47;53.02
82476;BME280;72099;43.176;76.872;2024-03-06T12:27:33;89713.03;;;4.36;52.80
82476;BME280;72099;43.176;76.872;2024-03-06T12:30:43;89723.31;;;4.32;52.90
82476;BME280;72099;43.176;76.872;2024-03-06T12:33:44;89724.06;;;4.24;54.35
82476;BME280;72099;43.176;76.872;2024-03-06T12:36:45;89726.50;;;4.29;54.85
82476;BME280;72099;43.176;76.872;2024-03-06T12:39:46;89726.03;;;4.27;54.90
82476;BME280;72099;43.176;76.872;2024-03-06T12:42:47;89723.44;;;4.19;55.50
82476;BME280;72099;43.176;76.872;2024-03-06T12:45:49;89715.47;;;4.06;55.90
82476;BME280;72099;43.176;76.872;2024-03-06T12:48:51;89724.28;;;3.88;56.14
82476;BME280;72099;43.176;76.872;2024-03-06T12:51:51;89734.31;;;3.72;56.64
82476;BME280;72099;43.176;76.872;2024-03-06T12:54:53;89735.34;;;3.63;56.76
82476;BME280;72099;43.176;76.872;2024-03-06T12:57:55;89703.22;;;3.19;57.29
82476;BME280;72099;43.176;76.872;2024-03-06T13:00:57;89723.44;;;3.31;57.53
82476;BME280;72099;43.176;76.872;2024-03-06T13:03:58;89736.94;;;3.10;57.30
82476;BME280;72099;43.176;76.872;2024-03-06T13:07:00;89714.81;;;2.68;57.58
82476;BME280;72099;43.176;76.872;2024-03-06T13:10:03;89737.19;;;2.78;58.10
82476;BME280;72099;43.176;76.872;2024-03-06T13:13:04;89750.28;;;2.95;58.81
82476;BME280;72099;43.176;76.872;2024-03-06T13:16:07;89751.13;;;3.04;59.00
82476;BME280;72099;43.176;76.872;2024-03-06T13:19:10;89761.91;;;3.20;59.01
82476;BME280;72099;43.176;76.872;2024-03-06T13:22:12;89745.19;;;3.12;59.08
82476;BME280;72099;43.176;76.872;2024-03-06T13:25:14;89736.25;;;2.96;59.25
82476;BME280;72099;43.176;76.872;2024-03-06T13:28:27;89769.78;;;3.06;59.42
82476;BME280;72099;43.176;76.872;2024-03-06T13:31:29;89764.41;;;2.80;59.32
82476;BME280;72099;43.176;76.872;2024-03-06T13:34:31;89772.47;;;2.56;59.05
82476;BME280;72099;43.176;76.872;2024-03-06T13:37:32;89779.59;;;2.51;60.58
82476;BME280;72099;43.176;76.872;2024-03-06T13:40:35;89778.13;;;2.58;59.31
82476;BME280;72099;43.176;76.872;2024-03-06T13:43:35;89780.66;;;2.50;59.42
82476;BME280;72099;43.176;76.872;2024-03-06T13:46:37;89771.72;;;2.42;59.78
82476;BME280;72099;43.176;76.872;2024-03-06T13:49:40;89779.47;;;2.56;60.40
82476;BME280;72099;43.176;76.872;2024-03-06T13:52:41;89775.31;;;2.69;61.12
82476;BME280;72099;43.176;76.872;2024-03-06T13:55:42;89784.34;;;2.71;60.74
82476;BME280;72099;43.176;76.872;2024-03-06T13:58:43;89779.91;;;2.49;60.58
82476;BME280;72099;43.176;76.872;2024-03-06T14:01:44;89770.84;;;2.47;62.31
82476;BME280;72099;43.176;76.872;2024-03-06T14:04:45;89781.19;;;2.74;63.59
82476;BME280;72099;43.176;76.872;2024-03-06T14:07:46;89761.22;;;2.61;64.12
82476;BME280;72099;43.176;76.872;2024-03-06T14:10:47;89750.97;;;2.42;63.97
82476;BME280;72099;43.176;76.872;2024-03-06T14:13:48;89788.34;;;2.55;64.60
82476;BME280;72099;43.176;76.872;2024-03-06T14:16:49;89768.78;;;2.35;64.21
82476;BME280;72099;43.176;76.872;2024-03-06T14:19:49;89775.06;;;2.06;63.05
82476;BME280;72099;43.176;76.872;2024-03-06T14:22:50;89786.50;;;2.05;63.31
82476;BME280;72099;43.176;76.872;2024-03-06T14:25:51;89741.47;;;1.74;63.22
82476;BME280;72099;43.176;76.872;2024-03-06T14:28:52;89761.81;;;1.81;62.65
82476;BME280;72099;43.176;76.872;2024-03-06T14:31:53;89789.50;;;1.85;62.97
82476;BME280;72099;43.176;76.872;2024-03-06T14:34:54;89784.84;;;1.68;62.61
82476;BME280;72099;43.176;76.872;2024-03-06T14:37:56;89776.50;;;1.44;62.04
82476;BME280;72099;43.176;76.872;2024-03-06T14:40:57;89786.00;;;1.35;61.73
82476;BME280;72099;43.176;76.872;2024-03-06T14:43:58;89782.91;;;1.19;61.62
82476;BME280;72099;43.176;76.872;2024-03-06T14:46:59;89786.13;;;1.11;61.68
82476;BME280;72099;43.176;76.872;2024-03-06T14:50:00;89789.00;;;1.09;61.70
82476;BME280;72099;43.176;76.872;2024-03-06T14:53:01;89760.56;;;0.91;61.69
82476;BME280;72099;43.176;76.872;2024-03-06T14:56:02;89771.19;;;0.89;61.56
82476;BME280;72099;43.176;76.872;2024-03-06T14:59:05;89776.75;;;0.82;61.24
82476;BME280;72099;43.176;76.872;2024-03-06T15:02:07;89770.94;;;0.72;60.80
82476;BME280;72099;43.176;76.872;2024-03-06T15:05:09;89775.38;;;0.71;61.12
82476;BME280;72099;43.176;76.872;2024-03-06T15:08:35;89776.13;;;0.72;60.45
82476;BME280;72099;43.176;76.872;2024-03-06T15:11:38;89774.72;;;0.79;60.01
82476;BME280;72099;43.176;76.872;2024-03-06T15:14:39;89761.94;;;0.69;59.87
82476;BME280;72099;43.176;76.872;2024-03-06T15:17:40;89777.81;;;0.81;60.62
82476;BME280;72099;43.176;76.872;2024-03-06T15:20:40;89774.16;;;0.82;59.54
82476;BME280;72099;43.176;76.872;2024-03-06T15:23:41;89760.88;;;0.70;59.64
82476;BME280;72099;43.176;76.872;2024-03-06T15:26:43;89750.88;;;0.64;59.26
82476;BME280;72099;43.176;76.872;2024-03-06T15:29:43;89753.13;;;0.70;59.12
82476;BME280;72099;43.176;76.872;2024-03-06T15:32:44;89776.09;;;0.91;59.73
82476;BME280;72099;43.176;76.872;2024-03-06T15:35:45;89774.19;;;0.96;59.17
82476;BME280;72099;43.176;76.872;2024-03-06T15:38:46;89764.00;;;0.86;58.71
82476;BME280;72099;43.176;76.872;2024-03-06T15:41:48;89754.56;;;0.76;58.54
82476;BME280;72099;43.176;76.872;2024-03-06T15:44:49;89745.56;;;0.74;58.14
82476;BME280;72099;43.176;76.872;2024-03-06T15:47:50;89771.97;;;0.89;58.62
82476;BME280;72099;43.176;76.872;2024-03-06T15:50:52;89770.91;;;0.91;58.45
82476;BME280;72099;43.176;76.872;2024-03-06T15:53:54;89744.59;;;0.70;57.97
82476;BME280;72099;43.176;76.872;2024-03-06T15:56:55;89769.81;;;0.78;58.42
82476;BME280;72099;43.176;76.872;2024-03-06T15:59:58;89770.53;;;0.65;57.77
82476;BME280;72099;43.176;76.872;2024-03-06T16:02:58;89712.06;;;0.12;58.41
82476;BME280;72099;43.176;76.872;2024-03-06T16:05:59;89764.00;;;0.53;58.40
82476;BME280;72099;43.176;76.872;2024-03-06T16:09:00;89765.47;;;0.41;57.98
82476;BME280;72099;43.176;76.872;2024-03-06T16:12:01;89766.09;;;0.33;58.37